This is the latest recevied weather packets stored in our database for station/object WX4TAZ. If no packets are shown the sender has not sent any weather packets the latest 10 day(s).
| Time | Temp. | Humidity | Pressure | Rain* | Wind** | Luminosity | Snow |
|---|---|---|---|---|---|---|---|
| 1777417264 | 11.11° C | 44% | 1016 hPa | 0 mm | - | - | - |
| 1777410064 | 11.11° C | 42% | 1016.4 hPa | 0 mm | - | - | - |
| 1777404664 | 11.67° C | 42% | 1017.1 hPa | 0 mm | - | - | - |
| 1777378563 | 5° C | 73% | 1015.2 hPa | 0 mm | - | - | - |
| 1777374663 | 5° C | 74% | 1016.2 hPa | 0 mm | - | - | - |
| 1777371664 | 5° C | 74% | 1014.9 hPa | 0 mm | - | - | - |
| 1777364763 | 6.11° C | 73% | 1015 hPa | 0 mm | - | - | - |
| 1777363863 | 6.67° C | 73% | 1014.7 hPa | 0 mm | - | - | - |
| 1777350064 | 7.22° C | 72% | 1012.9 hPa | 0 mm | - | - | - |
| 1777344363 | 7.78° C | 70% | 1011.8 hPa | 0 mm | - | - | - |
| 1777343464 | 7.78° C | 70% | 1011.5 hPa | 0 mm | - | - | - |
| 1777341963 | 7.78° C | 70% | 1010.7 hPa | 0 mm | - | - | - |
| 1777341363 | 7.78° C | 70% | 1010.6 hPa | 0 mm | - | - | - |
| 1777339563 | 8.33° C | 71% | 1009.7 hPa | 0 mm | - | - | - |
| 1777330563 | 10° C | 69% | 1007 hPa | 0 mm | - | - | - |
| 1777328163 | 10° C | 71% | 1006.4 hPa | 0 mm | - | - | - |
| 1777325763 | 10.56° C | 70% | 1005.7 hPa | 0 mm | - | - | - |
| 1777318563 | 11.11° C | 71% | 1003.9 hPa | 0 mm | - | - | - |
| 1777314064 | 11.11° C | 73% | 1002.6 hPa | 0 mm | - | - | - |
| 1777313463 | 11.11° C | 73% | 1002.8 hPa | 0 mm | - | - | - |
| 1777294864 | 15° C | 76% | 997.5 hPa | 0 mm | - | - | - |
| 1777294264 | 15° C | 76% | 998 hPa | 0 mm | - | - | - |
| 1777274163 | 15.56° C | 74% | 1001.7 hPa | 0 mm | - | - | - |
| 1777272664 | 15.56° C | 75% | 1001.8 hPa | 0 mm | - | - | - |
| 1777258263 | 16.67° C | 73% | 1003.9 hPa | 0 mm | - | - | - |
* Rain latest hour (hover to see other rain measurements)
** Current wind speed in m/s (hover to see current wind gust speed)